createdAt,value
2023-02-14T00:01:22.943Z,17.77
2023-02-14T00:03:49.607Z,14.60
2023-02-14T00:06:16.207Z,13.87
2023-02-14T00:08:45.084Z,13.47
2023-02-14T00:11:13.160Z,13.13
2023-02-14T00:13:39.939Z,15.63
2023-02-14T00:16:06.946Z,14.50
2023-02-14T00:18:52.438Z,11.63
2023-02-14T00:21:19.068Z,13.33
2023-02-14T00:23:45.678Z,13.37
2023-02-14T00:26:15.790Z,12.77
2023-02-14T00:28:43.627Z,12.68
2023-02-14T00:31:10.728Z,12.83
2023-02-14T00:33:37.817Z,11.87
2023-02-14T00:36:07.174Z,10.27
2023-02-14T00:38:34.624Z,12.05
2023-02-14T00:41:02.364Z,11.23
2023-02-14T00:43:29.557Z,10.33
2023-02-14T00:45:56.230Z,10.83
2023-02-14T00:48:22.957Z,9.17
2023-02-14T00:50:49.593Z,9.17
2023-02-14T00:53:16.159Z,9.10
2023-02-14T00:55:46.149Z,10.00
2023-02-14T00:58:13.196Z,8.98
2023-02-14T01:00:40.819Z,10.37
2023-02-14T01:03:07.727Z,9.93
2023-02-14T01:05:34.348Z,8.40
2023-02-14T01:08:00.979Z,9.50
2023-02-14T01:10:27.844Z,8.57
2023-02-14T01:12:54.450Z,8.17
2023-02-14T01:15:21.087Z,9.30
2023-02-14T01:17:47.938Z,8.40
2023-02-14T01:20:14.905Z,7.57
2023-02-14T01:22:42.519Z,9.77
2023-02-14T01:25:09.261Z,10.70
2023-02-14T01:27:35.935Z,10.07
2023-02-14T01:30:02.928Z,9.53
2023-02-14T01:32:37.198Z,9.37
2023-02-14T01:35:04.831Z,8.57
2023-02-14T01:37:34.224Z,7.20
2023-02-14T01:40:02.626Z,8.53
2023-02-14T01:42:29.736Z,10.27
2023-02-14T01:45:28.366Z,9.20
2023-02-14T01:47:58.782Z,7.87
2023-02-14T01:53:09.076Z,9.27
2023-02-14T01:55:39.828Z,9.50
2023-02-14T01:58:27.908Z,10.07
2023-02-14T02:00:59.283Z,10.87
2023-02-14T02:03:32.381Z,10.60
2023-02-14T02:06:18.173Z,10.20
2023-02-14T02:08:55.915Z,9.73
2023-02-14T02:11:26.192Z,9.30
2023-02-14T02:13:52.757Z,9.75
2023-02-14T02:16:30.663Z,10.57
2023-02-14T02:19:14.042Z,9.17
2023-02-14T02:22:06.688Z,10.07
2023-02-14T02:24:55.077Z,9.00
2023-02-14T02:27:34.735Z,8.97
2023-02-14T02:30:28.954Z,8.23
2023-02-14T02:33:20.506Z,9.40
2023-02-14T02:35:47.071Z,9.17
2023-02-14T02:38:16.605Z,9.93
2023-02-14T02:41:20.808Z,10.13
2023-02-14T02:44:17.880Z,9.27
2023-02-14T02:47:06.420Z,10.80
2023-02-14T02:50:03.859Z,9.70
2023-02-14T02:53:03.609Z,10.87
2023-02-14T02:56:10.451Z,10.00
2023-02-14T02:58:41.657Z,9.60
2023-02-14T03:01:22.175Z,9.70
2023-02-14T03:09:28.884Z,10.37
2023-02-14T03:12:17.046Z,9.60
2023-02-14T03:15:16.828Z,9.03
2023-02-14T03:18:08.500Z,10.30
2023-02-14T03:20:36.384Z,10.13
2023-02-14T03:26:34.330Z,9.50
2023-02-14T03:29:20.334Z,10.50
2023-02-14T03:32:08.150Z,11.23
2023-02-14T03:34:51.621Z,11.27
2023-02-14T03:37:30.356Z,10.47
2023-02-14T03:40:24.178Z,9.80
2023-02-14T03:42:55.359Z,9.67
2023-02-14T03:45:43.015Z,8.53
2023-02-14T03:48:14.399Z,8.57
2023-02-14T04:06:06.586Z,10.57
2023-02-14T04:08:40.434Z,9.27
2023-02-14T04:11:16.785Z,8.90
2023-02-14T04:13:44.852Z,9.40
2023-02-14T04:16:16.051Z,11.80
2023-02-14T04:19:04.513Z,11.20
2023-02-14T04:21:35.462Z,12.33
2023-02-14T04:24:06.297Z,11.40
2023-02-14T04:26:32.942Z,10.30
2023-02-14T04:29:00.573Z,11.17
2023-02-14T04:31:27.503Z,13.57
2023-02-14T04:34:00.114Z,13.20
2023-02-14T04:36:27.793Z,13.03
2023-02-14T04:38:55.336Z,19.23
2023-02-14T04:41:21.884Z,12.17
2023-02-14T04:43:49.546Z,11.83
2023-02-14T04:46:16.174Z,13.30
2023-02-14T04:48:42.881Z,11.37
2023-02-14T04:51:09.536Z,11.80
2023-02-14T04:53:40.468Z,11.17
2023-02-14T04:56:08.017Z,9.17
2023-02-14T04:58:35.035Z,9.47
2023-02-14T05:01:02.169Z,10.97
2023-02-14T05:03:29.089Z,11.47
2023-02-14T05:05:55.699Z,11.10
2023-02-14T05:08:22.369Z,11.37
2023-02-14T05:10:49.410Z,15.70
2023-02-14T05:13:18.249Z,15.37
2023-02-14T05:15:45.643Z,40.27
2023-02-14T05:18:25.573Z,37.47
2023-02-14T05:20:53.788Z,35.03
2023-02-14T05:23:21.735Z,32.63
2023-02-14T05:25:49.818Z,21.37
2023-02-14T05:28:17.020Z,19.00
2023-02-14T05:30:43.658Z,16.43
2023-02-14T05:33:12.892Z,15.57
2023-02-14T05:35:46.579Z,14.77
2023-02-14T05:38:14.097Z,13.53
2023-02-14T05:40:43.992Z,14.50
2023-02-14T05:43:11.102Z,17.63
2023-02-14T05:45:38.936Z,21.60
2023-02-14T05:48:06.300Z,24.40
2023-02-14T05:50:39.864Z,18.93
2023-02-14T05:53:13.199Z,14.33
2023-02-14T05:55:41.860Z,17.70
2023-02-14T05:58:08.515Z,16.03
2023-02-14T06:00:53.547Z,14.07
2023-02-14T06:03:20.126Z,15.67
2023-02-14T06:05:46.732Z,17.33
2023-02-14T06:08:13.289Z,15.23
2023-02-14T06:10:40.909Z,16.43
2023-02-14T06:13:09.235Z,15.73
2023-02-14T06:15:36.988Z,15.30
2023-02-14T06:18:05.447Z,13.43
2023-02-14T06:20:32.167Z,13.53
2023-02-14T06:22:59.185Z,15.37
2023-02-14T06:25:26.896Z,15.60
2023-02-14T06:27:57.542Z,16.90
2023-02-14T06:30:24.759Z,22.67
2023-02-14T06:32:52.168Z,21.50
2023-02-14T06:35:18.918Z,17.30
2023-02-14T06:37:46.719Z,17.80
2023-02-14T06:40:14.758Z,19.33
2023-02-14T06:42:41.637Z,15.67
2023-02-14T06:45:09.003Z,13.60
2023-02-14T06:47:35.779Z,14.17
2023-02-14T06:50:05.226Z,16.27
2023-02-14T06:52:33.109Z,38.33
2023-02-14T06:55:00.738Z,25.37
2023-02-14T06:57:27.304Z,27.27
2023-02-14T06:59:54.929Z,31.27
2023-02-14T07:02:24.427Z,25.33
2023-02-14T07:04:51.513Z,23.40
2023-02-14T07:07:18.208Z,18.03
2023-02-14T07:09:44.915Z,24.00
2023-02-14T07:12:12.537Z,32.50
2023-02-14T07:14:39.184Z,31.43
2023-02-14T07:17:05.897Z,36.67
2023-02-14T07:19:32.454Z,24.30
2023-02-14T07:21:59.177Z,26.80
2023-02-14T07:24:25.894Z,20.07
2023-02-14T07:26:52.477Z,17.70
2023-02-14T07:29:19.174Z,18.53
2023-02-14T07:31:45.968Z,21.90
2023-02-14T07:34:12.850Z,20.07
2023-02-14T07:36:39.486Z,14.93
2023-02-14T07:39:06.333Z,17.07
2023-02-14T07:41:33.114Z,18.40
2023-02-14T07:43:59.733Z,22.47
2023-02-14T07:46:26.533Z,18.87
2023-02-14T07:48:53.217Z,16.30
2023-02-14T07:51:19.932Z,21.07
2023-02-14T07:53:46.933Z,17.97
2023-02-14T07:56:13.550Z,15.87
2023-02-14T07:58:40.156Z,15.87
2023-02-14T08:01:08.573Z,19.10
2023-02-14T08:03:35.172Z,15.53
2023-02-14T08:06:01.861Z,14.83
2023-02-14T08:08:30.806Z,15.53
2023-02-14T08:10:57.956Z,11.80
2023-02-14T08:13:24.957Z,13.77
2023-02-14T08:16:07.523Z,10.50
2023-02-14T08:18:42.013Z,9.03
2023-02-14T08:21:10.730Z,9.73
2023-02-14T08:23:37.952Z,10.17
2023-02-14T08:26:04.731Z,10.57
2023-02-14T08:28:33.382Z,9.97
2023-02-14T08:31:00.911Z,7.43
2023-02-14T08:33:28.317Z,9.27
2023-02-14T08:35:56.925Z,7.57
2023-02-14T08:38:23.485Z,7.83
2023-02-14T08:40:50.204Z,7.73
2023-02-14T08:43:16.995Z,8.17
2023-02-14T08:45:43.798Z,9.43
2023-02-14T08:48:12.647Z,10.80
2023-02-14T08:50:40.465Z,9.37
2023-02-14T08:53:09.455Z,7.10
2023-02-14T08:55:37.411Z,7.60
2023-02-14T08:58:05.372Z,7.10
2023-02-14T09:00:33.336Z,7.93
2023-02-14T09:03:00.408Z,7.87
2023-02-14T09:05:27.245Z,7.50
2023-02-14T09:07:56.056Z,7.93
2023-02-14T09:10:24.674Z,9.07
2023-02-14T09:12:51.906Z,9.67
2023-02-14T09:15:18.488Z,9.10
2023-02-14T09:17:46.332Z,11.03
2023-02-14T09:20:15.212Z,8.63
2023-02-14T09:22:41.940Z,7.93
2023-02-14T09:25:11.531Z,8.77
2023-02-14T09:27:39.020Z,8.47
2023-02-14T09:30:07.232Z,8.70
2023-02-14T09:32:33.888Z,9.13
2023-02-14T09:35:19.059Z,9.90
2023-02-14T09:38:04.570Z,8.57
2023-02-14T09:40:32.644Z,10.37
2023-02-14T09:43:26.109Z,8.23
2023-02-14T09:45:56.271Z,6.00
2023-02-14T09:48:36.753Z,7.13
2023-02-14T09:51:12.331Z,6.30
2023-02-14T09:53:46.633Z,5.77
2023-02-14T09:56:33.574Z,6.00
2023-02-14T09:59:17.608Z,5.97
2023-02-14T10:01:51.511Z,8.00
2023-02-14T10:04:39.804Z,6.67
2023-02-14T10:07:25.137Z,7.57
2023-02-14T10:10:11.611Z,26.40
2023-02-14T10:12:53.529Z,7.37
2023-02-14T10:15:36.893Z,5.93
2023-02-14T10:18:06.261Z,6.33
2023-02-14T10:20:46.116Z,6.30
2023-02-14T10:23:27.575Z,6.40
2023-02-14T10:25:56.457Z,6.23
2023-02-14T10:28:31.363Z,6.23
2023-02-14T10:31:01.716Z,6.07
2023-02-14T10:33:33.883Z,6.03
2023-02-14T10:36:08.899Z,6.57
2023-02-14T10:38:41.422Z,6.07
2023-02-14T10:41:38.511Z,7.10
2023-02-14T10:44:50.743Z,6.20
2023-02-14T10:47:26.076Z,6.03
2023-02-14T10:50:05.693Z,6.60
2023-02-14T10:52:57.301Z,9.88
2023-02-14T10:55:47.559Z,6.83
2023-02-14T11:01:07.487Z,6.83
2023-02-14T11:03:38.206Z,7.07
2023-02-14T11:06:05.051Z,6.47
2023-02-14T11:08:33.799Z,6.17
2023-02-14T11:11:32.063Z,6.47
2023-02-14T11:13:58.779Z,6.10
2023-02-14T11:16:35.566Z,5.67
2023-02-14T11:19:14.633Z,7.33
2023-02-14T11:21:43.732Z,6.00
2023-02-14T11:24:31.672Z,6.63
2023-02-14T11:27:02.065Z,6.30
2023-02-14T11:29:33.397Z,5.83
2023-02-14T11:32:28.550Z,8.77
2023-02-14T11:35:17.099Z,6.30
2023-02-14T11:37:49.704Z,6.33
2023-02-14T11:40:30.063Z,6.00
2023-02-14T11:43:17.345Z,5.67
2023-02-14T11:45:48.977Z,6.10
2023-02-14T11:48:37.346Z,5.80
2023-02-14T11:51:10.497Z,6.05
2023-02-14T11:53:40.784Z,6.27
2023-02-14T11:58:39.411Z,5.43
2023-02-14T12:01:07.776Z,6.77
2023-02-14T12:03:49.631Z,5.67
2023-02-14T12:06:38.315Z,5.97
2023-02-14T12:09:31.895Z,6.60
2023-02-14T12:12:04.743Z,12.40
2023-02-14T12:14:34.291Z,6.10
2023-02-14T12:17:09.964Z,4.93
2023-02-14T12:19:49.442Z,4.93
2023-02-14T12:22:20.085Z,5.55
2023-02-14T12:25:18.858Z,5.13
2023-02-14T12:27:56.188Z,5.00
2023-02-14T12:30:25.033Z,4.87
2023-02-14T12:32:54.152Z,5.20
2023-02-14T12:35:20.646Z,4.90
2023-02-14T12:38:11.509Z,4.93
2023-02-14T12:40:56.437Z,5.10
2023-02-14T12:43:37.504Z,4.90
2023-02-14T12:46:04.148Z,5.53
2023-02-14T12:48:50.731Z,4.70
2023-02-14T12:51:39.494Z,5.10
2023-02-14T12:54:54.149Z,5.13
2023-02-14T12:57:38.767Z,5.17
2023-02-14T13:00:17.689Z,7.23
2023-02-14T13:03:15.520Z,5.13
2023-02-14T13:05:49.232Z,6.10
2023-02-14T13:08:40.489Z,4.77
2023-02-14T13:11:35.053Z,5.27
2023-02-14T13:14:31.083Z,5.27
2023-02-14T13:17:05.768Z,5.57
2023-02-14T13:19:46.252Z,5.47
2023-02-14T13:22:20.558Z,5.63
2023-02-14T13:24:50.759Z,5.27
2023-02-14T13:29:57.809Z,5.50
2023-02-14T13:32:29.326Z,5.50
2023-02-14T13:34:58.388Z,5.87
2023-02-14T13:37:27.468Z,5.93
2023-02-14T13:40:04.742Z,6.63
2023-02-14T13:43:03.743Z,6.03
2023-02-14T13:45:30.633Z,6.00
2023-02-14T13:48:13.772Z,6.43
2023-02-14T13:50:52.020Z,5.83
2023-02-14T13:53:53.908Z,6.67
2023-02-14T13:56:21.117Z,7.93
2023-02-14T13:58:56.356Z,6.83
2023-02-14T14:01:34.971Z,6.10
2023-02-14T14:04:28.100Z,5.90
2023-02-14T14:07:03.687Z,9.60
2023-02-14T14:09:42.498Z,8.03
2023-02-14T14:12:42.908Z,5.80
2023-02-14T14:15:15.004Z,7.40
2023-02-14T14:18:15.471Z,6.40
2023-02-14T14:20:45.614Z,6.50
2023-02-14T14:23:32.594Z,6.32
2023-02-14T14:26:01.135Z,6.50
2023-02-14T14:28:32.063Z,6.13
2023-02-14T14:30:59.053Z,6.10
2023-02-14T14:33:34.829Z,8.47
2023-02-14T14:36:25.162Z,6.57
2023-02-14T14:41:28.977Z,10.63
2023-02-14T14:43:55.787Z,8.70
2023-02-14T14:46:23.009Z,8.47
2023-02-14T14:48:54.478Z,8.63
2023-02-14T14:51:28.497Z,8.33
2023-02-14T14:54:06.116Z,6.20
2023-02-14T14:56:39.869Z,6.93
2023-02-14T14:59:28.166Z,9.10
2023-02-14T15:01:55.052Z,7.20
2023-02-14T15:04:30.596Z,6.40
2023-02-14T15:07:16.548Z,7.00
2023-02-14T15:09:44.646Z,8.10
2023-02-14T15:12:39.032Z,6.67
2023-02-14T15:15:09.404Z,8.80
2023-02-14T15:20:23.832Z,8.03
2023-02-14T15:22:52.919Z,7.57
2023-02-14T15:25:33.805Z,7.60
2023-02-14T15:28:01.749Z,7.67
2023-02-14T15:30:33.941Z,7.20
2023-02-14T15:33:05.049Z,6.53
2023-02-14T15:35:34.584Z,10.70
2023-02-14T15:38:05.146Z,8.07
2023-02-14T15:40:34.199Z,7.30
2023-02-14T15:43:14.864Z,6.50
2023-02-14T15:45:42.882Z,7.77
2023-02-14T15:48:19.575Z,8.53
2023-02-14T15:50:56.121Z,8.33
2023-02-14T15:53:48.870Z,7.67
2023-02-14T15:56:30.934Z,8.73
2023-02-14T15:59:15.231Z,16.30
2023-02-14T16:01:48.801Z,7.90
2023-02-14T16:04:24.413Z,7.87
2023-02-14T16:07:23.693Z,7.00
2023-02-14T16:10:11.792Z,7.17
2023-02-14T16:12:42.204Z,8.53
2023-02-14T16:15:22.042Z,10.97
2023-02-14T16:17:48.700Z,9.63
2023-02-14T16:20:35.504Z,9.73
2023-02-14T16:23:31.597Z,12.67
2023-02-14T16:25:58.186Z,13.80
2023-02-14T16:28:29.435Z,10.70
2023-02-14T16:30:57.283Z,12.30
2023-02-14T16:33:34.267Z,14.57
2023-02-14T16:36:18.016Z,23.13
2023-02-14T16:38:46.238Z,12.63
2023-02-14T16:41:19.195Z,10.47
2023-02-14T16:43:47.176Z,9.13
2023-02-14T16:46:16.104Z,8.37
2023-02-14T16:48:43.682Z,10.17
2023-02-14T16:51:14.225Z,11.03
2023-02-14T16:53:42.779Z,16.00
2023-02-14T16:56:17.030Z,37.10
2023-02-14T16:58:44.110Z,31.63
2023-02-14T17:01:10.679Z,29.73
2023-02-14T17:03:39.750Z,27.40
2023-02-14T17:06:08.269Z,24.40
2023-02-14T17:08:35.441Z,20.03
2023-02-14T17:11:04.363Z,17.07
2023-02-14T17:13:33.820Z,15.60
2023-02-14T17:16:01.684Z,15.95
2023-02-14T17:18:32.657Z,15.80
2023-02-14T17:21:01.111Z,14.53
2023-02-14T17:23:28.526Z,20.40
2023-02-14T17:25:55.205Z,15.37
2023-02-14T17:28:22.007Z,15.40
2023-02-14T17:30:48.717Z,15.20
2023-02-14T17:33:15.277Z,12.70
2023-02-14T17:35:41.855Z,13.40
2023-02-14T17:38:08.560Z,14.17
2023-02-14T17:40:35.154Z,14.07
2023-02-14T17:43:01.787Z,20.97
2023-02-14T17:45:28.620Z,18.97
2023-02-14T17:47:55.324Z,22.87
2023-02-14T17:50:21.968Z,18.30
2023-02-14T17:52:49.990Z,14.40
2023-02-14T17:55:16.768Z,16.50
2023-02-14T17:57:43.352Z,17.10
2023-02-14T18:00:11.850Z,22.43
2023-02-14T18:02:38.819Z,14.10
2023-02-14T18:05:07.426Z,30.23
2023-02-14T18:07:34.134Z,21.50
2023-02-14T18:10:00.865Z,17.33
2023-02-14T18:12:27.605Z,19.40
2023-02-14T18:14:56.057Z,19.40
2023-02-14T18:17:23.428Z,15.17
2023-02-14T18:19:50.213Z,23.47
2023-02-14T18:22:17.096Z,25.03
2023-02-14T18:24:43.743Z,19.07
2023-02-14T18:27:10.651Z,18.00
2023-02-14T18:29:41.952Z,15.97
2023-02-14T18:32:08.763Z,12.23
2023-02-14T18:34:38.481Z,19.93
2023-02-14T18:37:15.925Z,14.60
2023-02-14T18:39:42.619Z,17.30
2023-02-14T18:42:09.343Z,16.47
2023-02-14T18:44:36.770Z,12.70
2023-02-14T18:47:06.481Z,11.30
2023-02-14T18:49:33.231Z,16.75
2023-02-14T18:52:00.860Z,17.10
2023-02-14T18:54:27.565Z,15.80
2023-02-14T18:56:54.347Z,22.03
2023-02-14T18:59:23.701Z,16.70
2023-02-14T19:01:50.325Z,19.83
2023-02-14T19:04:18.024Z,24.00
2023-02-14T19:06:45.145Z,21.03
2023-02-14T19:09:14.224Z,35.67
2023-02-14T19:11:41.875Z,19.77
2023-02-14T19:14:10.589Z,18.33
2023-02-14T19:16:43.893Z,15.20
2023-02-14T19:19:10.924Z,18.10
2023-02-14T19:21:37.708Z,16.27
2023-02-14T19:24:07.244Z,16.47
2023-02-14T19:26:40.310Z,15.25
2023-02-14T19:29:11.042Z,20.47
2023-02-14T19:34:07.174Z,18.80
2023-02-14T19:36:36.378Z,16.67
2023-02-14T19:39:04.841Z,21.60
2023-02-14T19:41:34.675Z,15.70
2023-02-14T19:44:06.989Z,18.70
2023-02-14T19:46:34.625Z,23.83
2023-02-14T19:49:01.887Z,21.37
2023-02-14T19:51:31.328Z,23.57
2023-02-14T19:54:00.294Z,16.30
2023-02-14T19:56:30.314Z,13.40
2023-02-14T19:58:58.731Z,18.67
2023-02-14T20:01:25.511Z,12.77
2023-02-14T20:03:53.304Z,19.80
2023-02-14T20:06:23.955Z,19.17
2023-02-14T20:08:51.387Z,26.27
2023-02-14T20:11:36.338Z,27.13
2023-02-14T20:14:04.060Z,37.20
2023-02-14T20:16:33.063Z,27.90
2023-02-14T20:19:05.488Z,26.70
2023-02-14T20:21:32.931Z,21.20
2023-02-14T20:24:01.883Z,17.40
2023-02-14T20:26:31.469Z,12.73
2023-02-14T20:29:00.099Z,15.57
2023-02-14T20:31:27.273Z,12.50
2023-02-14T20:33:55.749Z,15.53
2023-02-14T20:36:37.943Z,19.37
2023-02-14T20:39:07.968Z,15.10
2023-02-14T20:41:36.596Z,18.85
2023-02-14T20:44:06.628Z,17.20
2023-02-14T20:46:35.559Z,17.17
2023-02-14T20:49:03.073Z,16.20
2023-02-14T20:51:31.108Z,14.43
2023-02-14T20:53:57.988Z,14.03
2023-02-14T20:56:24.921Z,13.30
2023-02-14T20:58:51.582Z,19.77
2023-02-14T21:01:21.577Z,21.10
2023-02-14T21:03:51.040Z,16.38
2023-02-14T21:06:19.797Z,15.80
2023-02-14T21:08:47.523Z,17.83
2023-02-14T21:11:15.951Z,15.23
2023-02-14T21:13:43.133Z,11.60
2023-02-14T21:16:14.808Z,10.87
2023-02-14T21:18:43.647Z,11.83
2023-02-14T21:21:32.392Z,11.13
2023-02-14T21:24:01.572Z,13.53
2023-02-14T21:26:29.245Z,14.20
2023-02-14T21:28:55.957Z,11.73
2023-02-14T21:31:25.547Z,11.67
2023-02-14T21:33:54.976Z,11.13
2023-02-14T21:36:23.782Z,13.07
2023-02-14T21:38:51.143Z,10.73
2023-02-14T21:41:23.663Z,12.27
2023-02-14T21:43:56.440Z,9.00
2023-02-14T21:46:27.577Z,14.37
2023-02-14T21:49:14.205Z,37.37
2023-02-14T21:51:41.422Z,46.73
2023-02-14T21:54:08.890Z,46.43
2023-02-14T21:56:37.057Z,55.57
2023-02-14T21:59:03.896Z,39.47
2023-02-14T22:01:33.300Z,28.23
2023-02-14T22:04:03.364Z,18.60
2023-02-14T22:06:30.223Z,20.02
2023-02-14T22:08:59.046Z,15.13
2023-02-14T22:11:27.947Z,15.73
2023-02-14T22:13:55.685Z,15.50
2023-02-14T22:16:24.035Z,15.67
2023-02-14T22:18:51.213Z,20.80
2023-02-14T22:21:22.045Z,14.93
2023-02-14T22:23:49.070Z,13.60
2023-02-14T22:26:18.736Z,14.10
2023-02-14T22:28:47.141Z,15.20
2023-02-14T22:31:15.816Z,15.77
2023-02-14T22:33:42.542Z,13.57
2023-02-14T22:36:10.464Z,16.03
2023-02-14T22:38:38.234Z,20.07
2023-02-14T22:41:09.904Z,15.80
2023-02-14T22:43:37.708Z,16.03
2023-02-14T22:46:19.386Z,16.53
2023-02-14T22:48:47.702Z,23.23
2023-02-14T22:51:23.504Z,22.00
2023-02-14T22:53:52.074Z,23.53
2023-02-14T22:56:34.527Z,25.53
2023-02-14T22:59:06.878Z,20.53
2023-02-14T23:01:35.142Z,21.80
2023-02-14T23:04:03.913Z,29.23
2023-02-14T23:06:33.174Z,20.23
2023-02-14T23:09:22.406Z,19.53
2023-02-14T23:11:49.933Z,18.10
2023-02-14T23:14:38.621Z,16.23
2023-02-14T23:17:17.447Z,15.97
2023-02-14T23:20:04.145Z,13.60
2023-02-14T23:22:33.898Z,15.87
2023-02-14T23:25:03.703Z,18.05
2023-02-14T23:27:40.021Z,17.48
2023-02-14T23:30:11.361Z,12.13
2023-02-14T23:32:41.696Z,11.33
2023-02-14T23:35:08.899Z,14.70
2023-02-14T23:37:35.632Z,10.07
2023-02-14T23:40:02.770Z,11.90
2023-02-14T23:42:29.497Z,11.70
2023-02-14T23:45:16.052Z,10.73
2023-02-14T23:47:43.738Z,12.67
2023-02-14T23:50:10.634Z,14.93
2023-02-14T23:52:38.628Z,15.83
2023-02-14T23:55:05.773Z,15.23
2023-02-14T23:57:32.876Z,13.13
